Time;durP1;ratioP1;P1;durP2;ratioP2;P2;SDS_P1;SDS_P2;PMS_P1;PMS_P2;Temp;Humidity;BMP_temperature;BMP_pressure;BME280_temperature;BME280_humidity;BME280_pressure;Samples;Min_cycle;Max_cycle;Signal;HPM_P1;HPM_P2
2023/06/19 00:02:17;;;;;;;22.13;13.75;;;;;;;17.65;100.00;97583.72;5053775;28;20132;-74
2023/06/19 00:04:43;;;;;;;22.73;13.80;;;;;;;17.59;100.00;97586.97;5053664;28;20090;-75
2023/06/19 00:07:08;;;;;;;21.90;13.70;;;;;;;17.59;100.00;97591.53;5036385;28;20135;-75
2023/06/19 00:09:34;;;;;;;24.27;14.10;;;;;;;17.54;100.00;97597.31;5053756;28;20478;-74
2023/06/19 00:12:01;;;;;;;23.17;13.98;;;;;;;17.46;100.00;97583.63;5053249;28;20044;-75
2023/06/19 00:14:26;;;;;;;24.13;13.10;;;;;;;17.42;100.00;97590.28;5071492;28;20472;-74
2023/06/19 00:16:52;;;;;;;22.73;13.60;;;;;;;17.40;100.00;97583.31;5036377;28;20099;-74
2023/06/19 00:19:18;;;;;;;21.10;13.52;;;;;;;17.32;100.00;97586.66;5053458;28;20016;-74
2023/06/19 00:21:43;;;;;;;26.58;13.52;;;;;;;17.29;100.00;97581.53;5036608;28;20032;-75
2023/06/19 00:24:10;;;;;;;26.88;14.48;;;;;;;17.38;100.00;97586.13;5053021;28;20097;-74
2023/06/19 00:26:35;;;;;;;19.88;13.90;;;;;;;17.39;100.00;97590.56;5033247;28;20111;-75
2023/06/19 00:29:01;;;;;;;22.80;13.75;;;;;;;17.42;100.00;97584.88;5034400;28;20028;-74
2023/06/19 00:31:27;;;;;;;30.55;13.65;;;;;;;17.35;100.00;97575.59;5045015;28;20032;-74
2023/06/19 00:33:53;;;;;;;26.23;13.93;;;;;;;17.31;100.00;97588.53;5036470;28;20033;-74
2023/06/19 00:36:20;;;;;;;26.45;13.55;;;;;;;17.28;100.00;97577.13;5036565;28;20027;-75
2023/06/19 00:38:45;;;;;;;24.25;13.85;;;;;;;17.30;100.00;97573.31;5036740;28;20028;-74
2023/06/19 00:41:11;;;;;;;20.63;12.65;;;;;;;17.37;100.00;97567.34;5052872;28;20036;-74
2023/06/19 00:43:36;;;;;;;21.45;13.30;;;;;;;17.39;100.00;97574.31;5053291;28;20028;-74
2023/06/19 00:46:03;;;;;;;27.67;13.27;;;;;;;17.39;100.00;97568.91;5052968;28;20033;-74
2023/06/19 00:48:29;;;;;;;21.98;12.80;;;;;;;17.39;100.00;97555.41;5036345;28;20459;-74
2023/06/19 00:50:58;;;;;;;21.00;13.65;;;;;;;17.40;100.00;97559.81;5052339;28;20518;-74
2023/06/19 00:53:24;;;;;;;22.70;13.65;;;;;;;17.37;100.00;97546.56;5053011;28;20032;-75
2023/06/19 00:55:55;;;;;;;30.23;13.35;;;;;;;17.42;100.00;97554.25;5052809;28;20051;-75
2023/06/19 00:58:21;;;;;;;22.77;13.05;;;;;;;17.44;100.00;97566.69;5052401;28;20024;-75
2023/06/19 01:00:47;;;;;;;25.00;13.77;;;;;;;17.46;100.00;97564.69;5036168;28;20024;-75
2023/06/19 01:03:13;;;;;;;25.73;14.68;;;;;;;17.54;100.00;97562.13;5052601;28;20569;-75
2023/06/19 01:05:39;;;;;;;20.77;13.73;;;;;;;17.48;100.00;97557.28;5036049;28;20057;-76
2023/06/19 01:08:22;;;;;;;24.90;14.52;;;;;;;17.56;100.00;97560.19;5036237;28;20407;-75
2023/06/19 01:10:52;;;;;;;24.48;14.55;;;;;;;17.53;100.00;97560.44;5036265;28;20071;-76
2023/06/19 01:13:31;;;;;;;21.65;13.60;;;;;;;17.55;100.00;97557.63;5052832;28;20025;-74
2023/06/19 01:15:57;;;;;;;21.50;13.35;;;;;;;17.53;100.00;97565.00;5052831;28;20116;-74
2023/06/19 01:18:24;;;;;;;20.77;13.88;;;;;;;17.50;100.00;97560.72;5037955;28;20024;-74
2023/06/19 01:20:50;;;;;;;20.42;13.27;;;;;;;17.54;100.00;97569.38;5039978;28;20031;-74
2023/06/19 01:23:15;;;;;;;18.67;12.93;;;;;;;17.52;100.00;97556.03;5040121;28;20028;-74
2023/06/19 01:25:41;;;;;;;24.20;13.00;;;;;;;17.55;100.00;97558.47;5039835;28;20054;-74
2023/06/19 01:28:10;;;;;;;16.67;11.80;;;;;;;17.56;100.00;97562.91;5039959;28;20123;-75
2023/06/19 01:30:41;;;;;;;20.15;12.07;;;;;;;17.56;100.00;97553.94;5056892;28;20112;-74
2023/06/19 01:33:14;;;;;;;17.80;11.63;;;;;;;17.56;100.00;97548.53;5040024;28;20047;-74
2023/06/19 01:35:42;;;;;;;20.63;12.40;;;;;;;17.54;100.00;97550.47;5036296;28;20031;-75
2023/06/19 01:38:08;;;;;;;17.95;11.75;;;;;;;17.37;100.00;97546.56;5035280;28;20023;-75
2023/06/19 01:40:34;;;;;;;18.88;12.38;;;;;;;17.46;100.00;97551.16;5039612;28;20028;-75
2023/06/19 01:43:04;;;;;;;21.17;11.00;;;;;;;17.39;100.00;97547.28;5039884;28;20048;-75
2023/06/19 01:45:30;;;;;;;17.98;11.98;;;;;;;17.35;100.00;97540.44;5039879;28;20459;-75
2023/06/19 01:47:56;;;;;;;21.13;11.38;;;;;;;17.27;100.00;97540.28;5054623;28;20066;-75
2023/06/19 01:50:23;;;;;;;17.17;11.48;;;;;;;17.28;100.00;97539.28;5039322;28;20503;-74
2023/06/19 01:52:49;;;;;;;25.40;13.48;;;;;;;17.28;100.00;97547.41;5056031;28;20016;-74
2023/06/19 01:55:14;;;;;;;23.25;12.10;;;;;;;17.29;100.00;97543.69;5039396;28;20562;-74
2023/06/19 01:57:40;;;;;;;24.35;12.73;;;;;;;17.26;100.00;97546.66;5032247;28;20028;-74
2023/06/19 02:00:10;;;;;;;23.42;12.35;;;;;;;17.15;100.00;97552.16;5056281;28;20340;-75
2023/06/19 02:02:36;;;;;;;20.10;12.18;;;;;;;17.07;100.00;97557.41;5056303;28;20052;-75
2023/06/19 02:05:02;;;;;;;21.80;12.52;;;;;;;17.06;100.00;97567.34;5056106;28;20031;-75
2023/06/19 02:07:27;;;;;;;29.00;12.05;;;;;;;16.96;100.00;97566.44;5038226;28;20036;-75
2023/06/19 02:09:54;;;;;;;18.30;12.05;;;;;;;16.95;100.00;97570.13;5055275;28;20067;-74
2023/06/19 02:12:20;;;;;;;20.17;11.82;;;;;;;16.88;100.00;97577.06;5054742;28;20090;-74
2023/06/19 02:14:45;;;;;;;21.13;12.23;;;;;;;16.80;100.00;97583.13;5055671;28;20535;-74
2023/06/19 02:17:11;;;;;;;21.30;12.73;;;;;;;16.72;100.00;97584.78;5055694;28;20106;-74
2023/06/19 02:19:36;;;;;;;24.00;11.98;;;;;;;16.65;100.00;97595.25;5055475;28;20071;-74
2023/06/19 02:22:02;;;;;;;17.83;12.50;;;;;;;16.58;100.00;97585.94;5055708;28;20047;-74
2023/06/19 02:24:27;;;;;;;19.67;12.35;;;;;;;16.58;100.00;97594.06;5038808;28;20047;-73
2023/06/19 02:26:53;;;;;;;18.80;12.57;;;;;;;16.58;100.00;97585.94;5073365;28;20075;-74
2023/06/19 02:29:19;;;;;;;22.63;13.07;;;;;;;16.61;100.00;97593.78;5055494;28;20498;-74
2023/06/19 02:31:45;;;;;;;31.52;13.57;;;;;;;16.55;100.00;97593.50;5055384;28;20024;-74
2023/06/19 02:34:11;;;;;;;30.05;13.05;;;;;;;16.43;100.00;97594.47;5055403;28;20375;-74
2023/06/19 02:36:36;;;;;;;21.48;13.70;;;;;;;16.42;100.00;97588.25;5038714;28;20029;-74
2023/06/19 02:39:06;;;;;;;21.92;13.38;;;;;;;16.47;100.00;97596.78;5055517;28;20021;-73
2023/06/19 02:41:32;;;;;;;28.30;13.07;;;;;;;16.54;100.00;97598.03;5037031;28;20020;-74
2023/06/19 02:43:58;;;;;;;21.90;13.98;;;;;;;16.52;100.00;97610.75;5073094;28;20032;-73
2023/06/19 02:46:23;;;;;;;30.52;14.07;;;;;;;16.54;100.00;97606.13;5055089;28;20032;-74
2023/06/19 02:48:49;;;;;;;25.77;13.60;;;;;;;16.48;100.00;97614.72;5054753;28;20045;-74
2023/06/19 02:51:14;;;;;;;25.02;13.98;;;;;;;16.41;100.00;97612.66;5055249;28;20023;-73
2023/06/19 02:53:41;;;;;;;21.38;14.15;;;;;;;16.36;100.00;97621.16;5037999;28;20033;-75
2023/06/19 02:56:07;;;;;;;28.52;15.50;;;;;;;16.42;100.00;97628.75;5038505;28;20086;-75
2023/06/19 02:58:34;;;;;;;30.08;14.80;;;;;;;16.38;100.00;97621.88;5055108;28;20452;-75
2023/06/19 03:01:00;;;;;;;25.67;14.48;;;;;;;16.35;100.00;97632.06;5038246;28;20122;-75
2023/06/19 03:03:25;;;;;;;39.33;17.00;;;;;;;16.25;100.00;97622.03;5054812;28;20028;-75
2023/06/19 03:05:51;;;;;;;43.80;17.88;;;;;;;16.16;100.00;97621.94;5054465;28;20032;-76
2023/06/19 03:08:17;;;;;;;38.17;17.05;;;;;;;16.21;100.00;97631.38;5055048;28;20036;-76
2023/06/19 03:10:42;;;;;;;35.90;17.40;;;;;;;16.18;100.00;97630.78;5054743;28;20033;-77
2023/06/19 03:13:08;;;;;;;43.03;18.70;;;;;;;16.20;100.00;97632.38;5038042;28;20385;-77
2023/06/19 03:15:33;;;;;;;38.42;17.75;;;;;;;16.23;100.00;97629.41;5072437;28;20551;-77
2023/06/19 03:17:59;;;;;;;27.75;15.63;;;;;;;16.17;100.00;97626.38;5054342;28;20099;-76
2023/06/19 03:20:24;;;;;;;25.10;15.63;;;;;;;16.22;100.00;97624.13;5054541;28;20028;-77
2023/06/19 03:22:50;;;;;;;30.52;16.13;;;;;;;16.31;100.00;97634.16;5054171;28;20154;-78
2023/06/19 03:25:15;;;;;;;36.38;16.35;;;;;;;16.36;100.00;97634.66;5054331;28;20119;-74
2023/06/19 03:27:41;;;;;;;27.40;14.18;;;;;;;16.45;100.00;97633.03;5054175;28;20047;-74
2023/06/19 03:30:08;;;;;;;32.85;16.83;;;;;;;16.42;100.00;97633.28;5071862;28;20024;-74
2023/06/19 03:32:34;;;;;;;30.63;14.52;;;;;;;16.48;100.00;97630.06;5054330;28;20028;-74
2023/06/19 03:35:00;;;;;;;26.45;14.48;;;;;;;16.56;100.00;97623.06;5053790;28;20039;-73
2023/06/19 03:37:25;;;;;;;25.88;14.20;;;;;;;16.67;100.00;97619.44;5054157;28;20450;-74
2023/06/19 03:39:51;;;;;;;85.35;18.48;;;;;;;16.78;100.00;97620.25;5053395;28;20078;-74
2023/06/19 03:42:16;;;;;;;30.25;14.23;;;;;;;16.90;100.00;97620.16;5053666;28;20024;-74
2023/06/19 03:44:42;;;;;;;27.40;14.63;;;;;;;16.86;100.00;97624.97;5071730;28;20030;-74
2023/06/19 03:47:07;;;;;;;25.45;14.70;;;;;;;16.98;100.00;97623.91;5053646;28;20040;-74
2023/06/19 03:49:33;;;;;;;25.23;13.90;;;;;;;17.01;100.00;97614.72;5071855;28;20485;-74
2023/06/19 03:51:59;;;;;;;45.28;15.23;;;;;;;17.10;100.00;97622.00;5053521;28;20496;-74
2023/06/19 03:54:26;;;;;;;44.97;13.07;;;;;;;17.23;100.00;97614.53;5071494;28;20070;-74
2023/06/19 03:56:51;;;;;;;31.55;17.90;;;;;;;17.35;100.00;97600.78;5054502;28;20078;-74
2023/06/19 03:59:17;;;;;;;33.83;13.98;;;;;;;17.25;100.00;97599.91;5071559;28;20451;-74
2023/06/19 04:01:43;;;;;;;42.47;15.68;;;;;;;17.21;100.00;97603.00;5053496;28;20055;-74
2023/06/19 04:04:08;;;;;;;29.23;14.75;;;;;;;17.40;100.00;97608.50;5053573;28;20024;-74
2023/06/19 04:06:34;;;;;;;31.60;16.10;;;;;;;17.54;100.00;97605.41;5034125;28;20496;-74
2023/06/19 04:08:59;;;;;;;29.38;14.63;;;;;;;17.66;100.00;97598.94;5071341;28;20024;-74
2023/06/19 04:11:25;;;;;;;29.33;13.43;;;;;;;17.77;100.00;97606.09;5053406;28;20082;-74
2023/06/19 04:13:50;;;;;;;21.73;13.13;;;;;;;17.82;100.00;97602.00;5053619;28;20111;-81
2023/06/19 04:16:16;;;;;;;30.90;13.18;;;;;;;17.93;100.00;97600.16;5036897;28;20021;-84
2023/06/19 04:18:41;;;;;;;23.77;12.48;;;;;;;18.21;100.00;97605.59;5037132;28;20468;-81
2023/06/19 04:21:07;;;;;;;19.38;11.68;;;;;;;18.17;100.00;97581.69;5036796;28;20111;-77
2023/06/19 04:23:33;;;;;;;28.48;12.45;;;;;;;18.28;100.00;97585.09;5053774;28;20028;-80
2023/06/19 04:25:58;;;;;;;28.25;14.77;;;;;;;18.37;100.00;97583.38;5053360;28;20025;-78
2023/06/19 04:28:24;;;;;;;42.45;26.85;;;;;;;18.57;100.00;97582.44;5053315;28;20017;-77
2023/06/19 04:30:49;;;;;;;23.73;12.60;;;;;;;18.72;100.00;97570.16;5069873;28;20024;-76
2023/06/19 04:33:15;;;;;;;26.70;11.88;;;;;;;18.91;100.00;97559.28;5047087;28;20468;-77
2023/06/19 04:35:40;;;;;;;25.17;12.85;;;;;;;18.95;100.00;97548.97;5052899;28;20036;-74
2023/06/19 04:38:07;;;;;;;31.85;15.02;;;;;;;19.17;100.00;97548.63;5070717;28;20051;-75
2023/06/19 04:40:33;;;;;;;18.45;11.07;;;;;;;19.17;100.00;97540.50;5036354;28;20039;-74
2023/06/19 04:43:00;;;;;;;15.60;10.77;;;;;;;19.31;100.00;97539.16;5035852;28;20115;-75
2023/06/19 04:45:25;;;;;;;15.27;9.43;;;;;;;19.49;100.00;97540.09;5053139;28;20047;-75
2023/06/19 04:47:51;;;;;;;15.98;10.10;;;;;;;19.62;100.00;97529.75;5070482;28;20555;-76
2023/06/19 04:50:16;;;;;;;16.08;9.93;;;;;;;19.92;100.00;97532.13;5036401;28;20036;-75
2023/06/19 04:52:42;;;;;;;14.25;9.63;;;;;;;20.39;100.00;97532.81;5052072;28;20534;-76
2023/06/19 04:55:11;;;;;;;34.25;17.75;;;;;;;20.62;100.00;97516.84;5070508;28;20123;-76
2023/06/19 04:57:37;;;;;;;28.63;11.20;;;;;;;21.37;100.00;97515.31;5036285;28;20028;-75
2023/06/19 05:00:07;;;;;;;23.58;9.60;;;;;;;22.08;100.00;97508.47;5052499;28;20048;-75
2023/06/19 05:02:33;;;;;;;18.65;10.65;;;;;;;21.76;100.00;97510.19;5070458;28;20028;-79
2023/06/19 05:05:02;;;;;;;18.45;9.35;;;;;;;21.23;100.00;97513.19;5035815;28;20411;-79
2023/06/19 05:07:30;;;;;;;19.35;11.95;;;;;;;20.61;100.00;97512.41;5031181;28;20035;-79
2023/06/19 05:09:56;;;;;;;41.33;16.75;;;;;;;20.15;100.00;97516.22;5052535;28;20473;-75
2023/06/19 05:12:21;;;;;;;23.67;11.02;;;;;;;19.79;100.00;97522.66;5052182;28;20039;-74
2023/06/19 05:14:47;;;;;;;22.38;11.48;;;;;;;19.73;100.00;97525.97;5052685;28;20111;-74
2023/06/19 05:17:12;;;;;;;17.15;10.25;;;;;;;20.33;100.00;97529.88;5052171;28;20103;-75
2023/06/19 05:19:38;;;;;;;22.60;12.55;;;;;;;21.33;100.00;97517.50;5052541;28;20490;-75
2023/06/19 05:22:03;;;;;;;16.70;8.93;;;;;;;21.87;100.00;97504.47;5070464;28;20039;-74
2023/06/19 05:24:29;;;;;;;18.20;10.68;;;;;;;22.71;100.00;97507.81;5052373;28;20147;-76
2023/06/19 05:26:54;;;;;;;24.15;12.48;;;;;;;23.63;100.00;97510.00;5035697;28;20086;-74
2023/06/19 05:29:20;;;;;;;19.50;8.88;;;;;;;23.59;100.00;97497.75;5052275;28;20121;-75
2023/06/19 05:31:45;;;;;;;15.35;8.15;;;;;;;24.70;100.00;97504.59;5036049;28;20571;-75
2023/06/19 05:34:11;;;;;;;15.25;8.48;;;;;;;25.43;100.00;97495.66;5035614;28;20487;-75
2023/06/19 05:36:36;;;;;;;14.15;7.38;;;;;;;26.38;100.00;97508.28;5052487;28;20032;-76
2023/06/19 05:39:02;;;;;;;15.23;8.40;;;;;;;27.25;100.00;97498.75;5052523;28;20468;-75
2023/06/19 05:41:27;;;;;;;22.35;9.93;;;;;;;27.78;100.00;97502.69;5035472;28;20074;-75
2023/06/19 05:43:53;;;;;;;16.73;8.52;;;;;;;28.50;98.24;97502.13;5052504;28;20464;-74
2023/06/19 05:46:18;;;;;;;21.48;8.82;;;;;;;27.97;98.99;97503.81;5070101;28;20024;-75
2023/06/19 05:48:44;;;;;;;20.23;8.60;;;;;;;27.61;100.00;97512.34;5052243;28;20128;-75
2023/06/19 05:51:09;;;;;;;18.77;7.38;;;;;;;26.69;100.00;97514.31;5052441;28;20097;-75
2023/06/19 05:53:35;;;;;;;34.28;7.70;;;;;;;27.29;100.00;97516.53;5035391;28;20031;-75
2023/06/19 05:56:01;;;;;;;25.60;8.57;;;;;;;27.79;100.00;97509.03;5035800;28;20476;-75
2023/06/19 05:58:26;;;;;;;31.20;9.15;;;;;;;28.51;98.39;97515.69;5052102;28;20024;-74
2023/06/19 06:00:57;;;;;;;15.57;8.18;;;;;;;28.93;92.72;97514.50;5070341;28;20449;-74
2023/06/19 06:03:24;;;;;;;24.63;10.10;;;;;;;29.26;90.51;97503.50;5052586;28;20086;-74
2023/06/19 06:05:50;;;;;;;19.20;8.50;;;;;;;29.36;88.86;97514.94;5056029;28;20077;-74
2023/06/19 06:08:16;;;;;;;8.43;6.88;;;;;;;28.80;89.95;97520.00;5055823;28;20509;-75
2023/06/19 06:10:41;;;;;;;35.67;8.35;;;;;;;28.76;91.35;97517.88;5055954;28;20098;-74
2023/06/19 06:13:07;;;;;;;11.70;7.55;;;;;;;28.28;94.08;97515.19;5073688;28;20155;-74
2023/06/19 06:15:32;;;;;;;37.28;13.20;;;;;;;29.03;89.68;97511.34;5065253;28;20032;-74
2023/06/19 06:17:59;;;;;;;18.27;8.80;;;;;;;29.97;84.84;97500.81;5073680;28;20107;-74
2023/06/19 06:20:24;;;;;;;19.20;8.15;;;;;;;29.62;85.42;97507.69;5039540;28;20527;-74
2023/06/19 06:22:50;;;;;;;8.65;6.95;;;;;;;30.02;83.25;97510.13;5073790;28;20060;-74
2023/06/19 06:25:15;;;;;;;16.48;7.50;;;;;;;30.44;78.17;97513.34;5038893;28;20507;-74
2023/06/19 06:27:41;;;;;;;17.98;6.78;;;;;;;30.30;79.02;97507.00;5055486;28;20118;-75
2023/06/19 06:30:07;;;;;;;23.45;7.80;;;;;;;30.84;75.40;97505.66;5055358;28;20117;-75
2023/06/19 06:32:33;;;;;;;16.65;7.25;;;;;;;31.00;72.63;97507.91;5054856;28;20036;-74
2023/06/19 06:34:59;;;;;;;21.80;6.82;;;;;;;29.35;79.70;97512.38;5055211;28;20032;-75
2023/06/19 06:37:25;;;;;;;13.57;7.38;;;;;;;28.39;88.80;97525.59;5073348;28;20472;-74
2023/06/19 06:39:50;;;;;;;15.98;7.60;;;;;;;28.63;88.68;97520.59;5054981;28;20025;-74
2023/06/19 06:42:16;;;;;;;7.65;6.30;;;;;;;28.37;88.57;97527.72;5055282;28;20027;-73
2023/06/19 06:44:42;;;;;;;13.55;7.63;;;;;;;29.00;88.37;97522.78;5055011;28;20035;-73
2023/06/19 06:47:07;;;;;;;12.23;6.85;;;;;;;30.03;81.79;97511.81;5072768;28;20044;-73
2023/06/19 06:49:33;;;;;;;19.48;8.80;;;;;;;30.52;79.36;97499.28;5054742;28;20120;-74
2023/06/19 06:51:58;;;;;;;28.02;7.35;;;;;;;30.86;76.13;97501.59;5068960;28;20519;-74
2023/06/19 06:54:24;;;;;;;13.13;5.88;;;;;;;31.50;70.70;97498.53;5054863;28;20033;-74
2023/06/19 06:56:52;;;;;;;11.95;6.25;;;;;;;31.83;64.50;97497.34;5054653;28;20111;-75
2023/06/19 06:59:18;;;;;;;15.75;6.57;;;;;;;31.73;65.80;97499.78;5054840;28;20082;-74
2023/06/19 07:01:43;;;;;;;11.27;6.00;;;;;;;31.55;64.30;97501.47;5072633;28;20032;-74
2023/06/19 07:04:09;;;;;;;8.95;5.80;;;;;;;31.49;67.74;97501.53;5054816;28;20515;-75
2023/06/19 07:06:34;;;;;;;10.35;6.00;;;;;;;32.57;58.45;97497.09;5054997;28;20468;-75
2023/06/19 07:09:00;;;;;;;7.97;5.35;;;;;;;32.50;56.29;97497.13;5054360;28;20032;-75
2023/06/19 07:11:25;;;;;;;12.80;6.38;;;;;;;32.63;55.44;97499.75;5054774;28;20037;-75
2023/06/19 07:13:51;;;;;;;10.15;5.13;;;;;;;32.64;53.89;97500.63;5054413;28;20035;-74
2023/06/19 07:16:16;;;;;;;7.85;5.30;;;;;;;32.16;54.95;97497.81;5036948;28;20064;-74
2023/06/19 07:18:42;;;;;;;21.85;5.40;;;;;;;32.96;52.51;97503.94;5053802;28;20086;-74
2023/06/19 07:21:12;;;;;;;10.82;4.88;;;;;;;33.83;49.00;97493.91;5034073;28;20039;-74
2023/06/19 07:23:39;;;;;;;6.97;4.78;;;;;;;32.97;49.47;97483.47;5054509;28;20025;-74
2023/06/19 07:26:05;;;;;;;12.55;5.53;;;;;;;33.64;47.83;97480.19;5037671;28;20369;-74
2023/06/19 07:28:30;;;;;;;6.93;4.03;;;;;;;33.06;41.25;97457.06;5037791;28;20028;-73
2023/06/19 07:30:56;;;;;;;8.13;4.82;;;;;;;32.55;45.71;97474.25;5071906;28;20032;-74
2023/06/19 07:33:21;;;;;;;14.10;4.15;;;;;;;33.47;45.11;97467.25;5037408;28;20032;-74
2023/06/19 07:35:47;;;;;;;7.18;4.38;;;;;;;34.79;42.09;97467.03;5054001;28;20024;-74
2023/06/19 07:38:12;;;;;;;6.95;4.07;;;;;;;35.43;40.35;97472.31;5054179;28;20020;-74
2023/06/19 07:40:38;;;;;;;17.38;4.20;;;;;;;35.63;39.77;97459.59;5054174;28;20025;-75
2023/06/19 07:43:04;;;;;;;7.03;4.57;;;;;;;35.59;38.57;97444.50;5053867;28;20020;-73
2023/06/19 07:45:29;;;;;;;6.45;4.10;;;;;;;34.76;39.21;97461.16;5037268;28;20064;-74
2023/06/19 07:47:58;;;;;;;5.13;4.38;;;;;;;34.92;38.16;97462.28;5053731;28;20056;-74
2023/06/19 07:50:24;;;;;;;8.23;4.30;;;;;;;34.77;37.91;97444.22;5053975;28;20503;-74
2023/06/19 07:52:49;;;;;;;5.13;4.60;;;;;;;33.21;39.99;97451.94;5070901;28;20028;-74
2023/06/19 07:55:15;;;;;;;4.45;4.05;;;;;;;33.16;39.78;97462.91;5048734;28;20424;-74
2023/06/19 07:57:40;;;;;;;14.55;4.50;;;;;;;34.11;39.13;97458.75;5053824;28;20115;-74
2023/06/19 08:00:12;;;;;;;7.32;4.50;;;;;;;32.70;40.12;97463.66;5071372;28;20028;-74
2023/06/19 08:02:41;;;;;;;5.10;3.97;;;;;;;33.58;39.86;97453.38;5054732;28;20032;-75
2023/06/19 08:05:07;;;;;;;10.65;4.40;;;;;;;35.01;37.58;97452.44;5037102;28;20043;-75
2023/06/19 08:07:33;;;;;;;5.47;3.97;;;;;;;35.50;36.81;97454.34;5036602;28;20455;-73
2023/06/19 08:09:59;;;;;;;6.15;3.97;;;;;;;34.79;37.97;97458.69;5068622;28;20060;-73
2023/06/19 08:12:24;;;;;;;19.45;4.70;;;;;;;34.99;38.13;97461.00;5036640;28;20044;-73
2023/06/19 08:14:50;;;;;;;29.67;5.20;;;;;;;35.67;38.13;97465.47;5053522;28;20099;-75
2023/06/19 08:17:15;;;;;;;7.30;4.13;;;;;;;34.74;38.37;97464.19;5053429;28;20036;-74
2023/06/19 08:19:42;;;;;;;4.35;3.95;;;;;;;35.12;40.07;97459.88;5053250;28;20058;-75
2023/06/19 08:22:08;;;;;;;7.78;4.47;;;;;;;35.24;38.96;97463.41;5066338;28;20029;-73
2023/06/19 08:24:36;;;;;;;24.23;4.80;;;;;;;35.93;37.79;97452.75;5052452;28;20497;-73
2023/06/19 08:27:02;;;;;;;5.55;4.70;;;;;;;36.39;37.07;97455.88;5053455;28;20078;-74
2023/06/19 08:29:27;;;;;;;8.43;4.93;;;;;;;36.52;37.86;97456.59;5036211;28;20020;-74
2023/06/19 08:31:53;;;;;;;5.63;5.00;;;;;;;35.23;38.54;97456.13;5053283;28;20454;-74
2023/06/19 08:34:18;;;;;;;4.63;3.92;;;;;;;34.96;40.49;97466.22;5053278;28;20032;-74
2023/06/19 08:36:44;;;;;;;9.00;3.95;;;;;;;35.60;38.54;97462.88;5036298;28;20039;-74
2023/06/19 08:39:09;;;;;;;4.55;4.10;;;;;;;36.33;36.67;97456.09;5053093;28;20059;-74
2023/06/19 08:41:38;;;;;;;7.03;4.20;;;;;;;36.78;36.37;97448.25;5036105;28;20056;-74
2023/06/19 08:44:05;;;;;;;6.15;4.75;;;;;;;38.01;35.31;97456.47;5053063;28;20020;-75
2023/06/19 08:46:30;;;;;;;10.52;5.03;;;;;;;37.33;36.30;97461.00;5036118;28;20034;-75
2023/06/19 08:48:56;;;;;;;5.43;4.38;;;;;;;37.06;36.85;97457.44;5070821;28;20111;-74
2023/06/19 08:51:22;;;;;;;4.93;4.43;;;;;;;37.19;37.13;97459.81;5052834;28;20086;-74
2023/06/19 08:53:53;;;;;;;17.77;13.95;;;;;;;37.45;36.38;97453.31;5052808;28;20031;-75
2023/06/19 08:56:19;;;;;;;17.67;10.90;;;;;;;37.10;37.18;97456.63;5052858;28;20119;-75
2023/06/19 08:58:44;;;;;;;6.75;4.43;;;;;;;37.43;36.56;97455.50;5070425;28;20056;-75
2023/06/19 09:01:10;;;;;;;5.82;5.05;;;;;;;38.08;34.44;97445.91;5036071;28;20483;-75
2023/06/19 09:03:35;;;;;;;4.55;4.13;;;;;;;38.38;34.05;97458.06;5052473;28;20024;-75
2023/06/19 09:06:07;;;;;;;87.25;8.98;;;;;;;38.74;33.57;97455.34;5052537;28;20451;-74
2023/06/19 09:08:32;;;;;;;7.00;5.88;;;;;;;38.73;34.04;97448.91;5035675;28;20127;-74
2023/06/19 09:10:59;;;;;;;5.30;4.65;;;;;;;36.42;33.80;97437.78;5052500;28;20115;-74
2023/06/19 09:13:25;;;;;;;6.68;3.70;;;;;;;36.20;34.42;97442.56;5052513;28;20028;-74
2023/06/19 09:16:02;;;;;;;4.68;4.22;;;;;;;37.12;34.01;97431.25;5035819;28;20476;-74
2023/06/19 09:18:30;;;;;;;12.57;5.20;;;;;;;38.14;34.22;97439.22;5052588;28;20116;-74
2023/06/19 09:20:56;;;;;;;9.18;5.13;;;;;;;38.83;33.25;97437.78;5052579;28;20039;-74
2023/06/19 09:23:22;;;;;;;17.08;4.60;;;;;;;38.79;34.03;97442.28;5035960;28;20033;-74
2023/06/19 09:25:51;;;;;;;7.15;4.85;;;;;;;38.61;33.84;97433.53;5035570;28;20036;-75
2023/06/19 09:28:18;;;;;;;7.15;4.22;;;;;;;38.47;33.34;97438.81;5052489;28;20033;-74
2023/06/19 09:30:56;;;;;;;6.22;4.88;;;;;;;38.27;34.27;97433.13;5052311;28;20032;-74
2023/06/19 09:33:29;;;;;;;16.70;5.05;;;;;;;38.52;32.89;97433.22;5070482;28;20424;-74
2023/06/19 09:35:56;;;;;;;10.82;4.07;;;;;;;39.14;32.70;97441.44;5052295;28;20103;-74
2023/06/19 09:38:29;;;;;;;6.57;4.55;;;;;;;38.77;32.68;97436.06;5036067;28;20459;-74
2023/06/19 09:41:01;;;;;;;7.20;3.83;;;;;;;37.66;33.94;97427.19;5039469;28;20024;-75
2023/06/19 09:43:47;;;;;;;7.93;4.15;;;;;;;38.56;33.58;97447.47;5039585;28;20036;-73
2023/06/19 09:46:14;;;;;;;11.07;4.18;;;;;;;39.86;31.89;97435.53;5039259;28;20031;-73
2023/06/19 09:48:46;;;;;;;5.35;4.10;;;;;;;38.58;32.75;97437.69;5055726;28;20044;-74
2023/06/19 09:51:41;;;;;;;11.60;4.15;;;;;;;38.89;33.28;97439.47;5055826;28;20378;-74
2023/06/19 09:54:07;;;;;;;20.38;13.93;;;;;;;39.61;31.74;97440.31;5032064;28;20044;-74
2023/06/19 09:56:34;;;;;;;14.10;4.63;;;;;;;39.77;31.94;97426.03;5052721;28;20029;-75
2023/06/19 09:59:00;;;;;;;28.42;22.67;;;;;;;40.45;30.48;97421.56;5035994;28;20028;-74
2023/06/19 10:01:27;;;;;;;10.68;4.40;;;;;;;41.26;29.89;97431.38;5034630;28;20025;-74
2023/06/19 10:04:03;;;;;;;4.45;3.63;;;;;;;40.46;30.49;97422.38;5055878;28;20033;-74
2023/06/19 10:06:29;;;;;;;6.03;4.43;;;;;;;41.78;29.71;97433.50;5056058;28;20512;-74
2023/06/19 10:08:55;;;;;;;5.57;4.60;;;;;;;41.13;29.50;97420.84;5022751;28;20028;-74
2023/06/19 10:11:21;;;;;;;13.88;5.57;;;;;;;40.71;29.80;97413.84;5027689;28;20036;-75
2023/06/19 10:13:47;;;;;;;4.50;4.00;;;;;;;39.67;30.63;97414.84;5071502;28;20037;-74
2023/06/19 10:16:24;;;;;;;9.90;4.45;;;;;;;39.57;31.63;97414.81;5073488;28;20033;-74
2023/06/19 10:18:51;;;;;;;7.43;3.92;;;;;;;39.73;31.24;97413.69;5073251;28;20032;-75
2023/06/19 10:21:17;;;;;;;11.23;3.97;;;;;;;40.28;30.78;97420.22;5055723;28;20438;-75
2023/06/19 10:23:43;;;;;;;6.78;4.22;;;;;;;40.17;30.71;97410.19;5055520;28;20036;-75
2023/06/19 10:26:20;;;;;;;7.53;4.20;;;;;;;39.80;31.13;97408.63;5055532;28;20412;-74
2023/06/19 10:28:48;;;;;;;12.25;4.13;;;;;;;40.78;29.87;97413.50;5073713;28;20029;-75
2023/06/19 10:31:13;;;;;;;8.48;4.20;;;;;;;40.41;29.32;97405.56;5072966;28;20017;-75
2023/06/19 10:33:42;;;;;;;6.95;4.22;;;;;;;39.59;30.51;97390.19;5055642;28;20407;-74
2023/06/19 10:36:19;;;;;;;9.93;4.70;;;;;;;39.90;29.99;97405.78;5038996;28;20024;-74
2023/06/19 10:38:47;;;;;;;6.03;4.47;;;;;;;38.43;31.37;97404.09;5055572;28;20112;-75
2023/06/19 10:41:24;;;;;;;9.15;5.45;;;;;;;35.98;35.43;97402.69;5055475;28;20048;-75
2023/06/19 10:44:14;;;;;;;7.00;4.07;;;;;;;34.46;37.59;97416.06;5072960;28;20471;-75
2023/06/19 10:46:41;;;;;;;7.07;4.20;;;;;;;33.05;39.36;97409.09;5039113;28;20067;-75
2023/06/19 10:49:10;;;;;;;10.93;4.85;;;;;;;33.25;41.64;97411.53;5055219;28;20451;-76
2023/06/19 10:51:36;;;;;;;21.92;6.13;;;;;;;34.97;40.36;97415.06;5037680;28;20040;-75
2023/06/19 10:54:02;;;;;;;6.50;4.30;;;;;;;36.95;35.03;97393.16;5054824;28;20036;-73
2023/06/19 10:56:27;;;;;;;4.28;3.88;;;;;;;38.71;33.40;97400.81;5072874;28;20503;-76
2023/06/19 10:59:17;;;;;;;14.18;4.10;;;;;;;38.83;32.60;97403.34;5054979;28;20056;-75
2023/06/19 11:01:45;;;;;;;15.65;4.72;;;;;;;39.47;31.45;97386.84;5039679;28;20024;-74
2023/06/19 11:04:13;;;;;;;12.73;4.10;;;;;;;40.19;31.54;97394.75;5054906;28;20031;-74
2023/06/19 11:06:39;;;;;;;13.73;4.38;;;;;;;38.22;32.59;97394.78;5055066;28;20016;-74
2023/06/19 11:09:09;;;;;;;6.50;4.53;;;;;;;35.75;35.72;97390.69;5038080;28;20082;-74
2023/06/19 11:11:43;;;;;;;15.10;6.00;;;;;;;34.10;39.14;97400.66;5038106;28;20024;-74
2023/06/19 11:14:09;;;;;;;10.95;5.43;;;;;;;33.78;40.31;97387.22;5034674;28;20086;-74
2023/06/19 11:16:38;;;;;;;6.07;4.22;;;;;;;34.21;38.69;97385.88;5054326;28;20356;-74
2023/06/19 11:19:06;;;;;;;7.38;4.70;;;;;;;36.22;35.98;97398.53;5072282;28;20029;-74